createdAt,value
2023-05-03T00:02:26.542Z,20.00
2023-05-03T00:05:08.089Z,20.00
2023-05-03T00:07:39.571Z,20.00
2023-05-03T00:10:10.522Z,20.00
2023-05-03T00:12:42.638Z,20.00
2023-05-03T00:15:14.336Z,20.00
2023-05-03T00:17:43.004Z,20.00
2023-05-03T00:20:14.694Z,19.90
2023-05-03T00:22:42.637Z,19.90
2023-05-03T00:25:13.302Z,19.90
2023-05-03T00:27:42.645Z,19.90
2023-05-03T00:30:14.558Z,19.90
2023-05-03T00:32:44.572Z,19.80
2023-05-03T00:35:14.882Z,19.80
2023-05-03T00:37:42.975Z,19.80
2023-05-03T00:40:12.436Z,19.80
2023-05-03T00:42:43.645Z,19.80
2023-05-03T00:45:15.458Z,19.80
2023-05-03T00:47:46.083Z,19.80
2023-05-03T00:50:16.775Z,19.80
2023-05-03T00:52:48.554Z,19.80
2023-05-03T00:55:19.867Z,19.80
2023-05-03T00:57:49.225Z,19.80
2023-05-03T01:00:20.692Z,19.70
2023-05-03T01:02:50.133Z,19.70
2023-05-03T01:05:20.571Z,19.70
2023-05-03T01:08:29.346Z,19.70
2023-05-03T01:11:09.162Z,19.70
2023-05-03T01:14:25.453Z,19.60
2023-05-03T01:17:09.618Z,19.70
2023-05-03T01:19:42.141Z,19.60
2023-05-03T01:22:44.063Z,19.60
2023-05-03T01:25:17.447Z,19.60
2023-05-03T01:27:48.436Z,19.60
2023-05-03T01:30:20.937Z,19.60
2023-05-03T01:33:01.634Z,19.60
2023-05-03T01:35:45.424Z,19.60
2023-05-03T01:38:15.887Z,19.60
2023-05-03T01:43:35.772Z,19.50
2023-05-03T01:46:06.131Z,19.50
2023-05-03T01:48:39.624Z,19.50
2023-05-03T01:51:10.263Z,19.50
2023-05-03T01:53:40.626Z,19.40
2023-05-03T01:56:11.880Z,19.40
2023-05-03T01:58:39.802Z,19.50
2023-05-03T02:01:09.088Z,19.50
2023-05-03T02:03:40.186Z,19.40
2023-05-03T02:06:09.361Z,19.40
2023-05-03T02:08:38.183Z,19.40
2023-05-03T02:13:52.952Z,19.40
2023-05-03T02:16:22.477Z,19.40
2023-05-03T02:18:52.396Z,19.40
2023-05-03T02:21:20.284Z,19.30
2023-05-03T02:23:48.376Z,19.40
2023-05-03T02:26:17.252Z,19.40
2023-05-03T02:28:46.171Z,19.30
2023-05-03T02:31:17.122Z,19.30
2023-05-03T02:33:47.336Z,19.30
2023-05-03T02:36:16.688Z,19.30
2023-05-03T02:38:47.748Z,19.30
2023-05-03T02:41:16.575Z,19.30
2023-05-03T02:43:50.057Z,19.20
2023-05-03T02:46:18.684Z,19.30
2023-05-03T02:48:46.690Z,19.20
2023-05-03T02:51:17.421Z,19.20
2023-05-03T02:53:44.306Z,19.20
2023-05-03T02:56:12.430Z,19.20
2023-05-03T03:01:26.309Z,19.20
2023-05-03T03:03:56.736Z,19.20
2023-05-03T03:06:31.258Z,19.20
2023-05-03T03:09:01.583Z,19.20
2023-05-03T03:11:36.263Z,19.20
2023-05-03T03:14:07.981Z,19.20
2023-05-03T03:16:38.272Z,19.10
2023-05-03T03:19:06.554Z,19.10
2023-05-03T03:21:38.862Z,19.10
2023-05-03T03:24:10.635Z,19.10
2023-05-03T03:26:47.093Z,19.10
2023-05-03T03:29:18.746Z,19.10
2023-05-03T03:31:46.445Z,19.10
2023-05-03T03:34:17.197Z,19.10
2023-05-03T03:36:51.069Z,19.10
2023-05-03T03:39:19.134Z,19.10
2023-05-03T03:41:48.878Z,19.10
2023-05-03T03:44:17.765Z,19.10
2023-05-03T03:46:47.358Z,19.10
2023-05-03T03:49:17.349Z,19.10
2023-05-03T03:51:52.141Z,19.00
2023-05-03T03:54:21.714Z,19.00
2023-05-03T03:59:36.646Z,19.00
2023-05-03T04:02:08.355Z,19.00
2023-05-03T04:04:38.703Z,19.00
2023-05-03T04:07:08.466Z,19.00
2023-05-03T04:09:36.521Z,19.00
2023-05-03T04:12:06.494Z,19.00
2023-05-03T04:14:37.504Z,18.90
2023-05-03T04:17:08.708Z,18.90
2023-05-03T04:19:40.930Z,18.90
2023-05-03T04:22:11.419Z,18.90
2023-05-03T04:24:42.967Z,18.90
2023-05-03T04:27:13.797Z,18.90
2023-05-03T04:29:44.684Z,18.90
2023-05-03T04:32:19.339Z,18.90
2023-05-03T04:34:51.958Z,18.90
2023-05-03T04:37:27.084Z,18.90
2023-05-03T04:39:57.527Z,18.90
2023-05-03T04:42:29.034Z,18.90
2023-05-03T04:44:59.154Z,18.90
2023-05-03T04:47:33.798Z,18.80
2023-05-03T04:50:06.332Z,18.90
2023-05-03T04:55:38.559Z,18.80
2023-05-03T04:58:09.901Z,18.80
2023-05-03T05:00:44.299Z,18.80
2023-05-03T05:03:11.039Z,18.80
2023-05-03T05:05:38.341Z,18.80
2023-05-03T05:08:08.670Z,18.80
2023-05-03T05:10:44.114Z,18.80
2023-05-03T05:13:17.304Z,18.80
2023-05-03T05:15:44.254Z,18.80
2023-05-03T05:18:15.307Z,18.80
2023-05-03T05:20:49.790Z,18.80
2023-05-03T05:23:20.102Z,18.80
2023-05-03T05:25:50.566Z,18.80
2023-05-03T05:28:22.129Z,18.70
2023-05-03T05:30:51.293Z,18.70
2023-05-03T05:33:19.495Z,18.80
2023-05-03T05:35:51.717Z,18.80
2023-05-03T05:38:22.576Z,18.80
2023-05-03T05:40:53.673Z,18.80
2023-05-03T05:43:23.628Z,18.80
2023-05-03T05:45:56.052Z,18.80
2023-05-03T05:48:27.052Z,18.70
2023-05-03T05:50:59.073Z,18.80
2023-05-03T05:53:29.342Z,18.70
2023-05-03T05:55:59.439Z,18.70
2023-05-03T05:58:28.464Z,18.70
2023-05-03T06:01:03.730Z,18.70
2023-05-03T06:03:34.231Z,18.70
2023-05-03T06:06:02.633Z,18.70
2023-05-03T06:08:33.042Z,18.70
2023-05-03T06:11:04.001Z,18.70
2023-05-03T06:16:19.403Z,18.70
2023-05-03T06:18:51.372Z,18.70
2023-05-03T06:21:19.415Z,18.70
2023-05-03T06:23:49.455Z,18.70
2023-05-03T06:26:20.713Z,18.70
2023-05-03T06:28:51.962Z,18.80
2023-05-03T06:31:22.557Z,18.80
2023-05-03T06:33:53.890Z,18.70
2023-05-03T06:36:25.245Z,18.80
2023-05-03T06:41:37.828Z,18.70
2023-05-03T06:44:09.159Z,18.80
2023-05-03T06:46:42.244Z,18.70
2023-05-03T06:49:13.265Z,18.70
2023-05-03T06:51:41.259Z,18.70
2023-05-03T06:54:11.602Z,18.70
2023-05-03T06:56:39.672Z,18.70
2023-05-03T06:59:11.889Z,18.70
2023-05-03T07:01:42.168Z,18.70
2023-05-03T07:06:56.822Z,18.70
2023-05-03T07:09:42.272Z,18.80
2023-05-03T07:12:15.221Z,18.80
2023-05-03T07:14:45.427Z,18.70
2023-05-03T07:17:16.390Z,18.70
2023-05-03T07:19:43.863Z,18.70
2023-05-03T07:22:15.347Z,18.70
2023-05-03T07:24:46.627Z,18.70
2023-05-03T07:27:18.518Z,18.70
2023-05-03T07:29:45.173Z,18.80
2023-05-03T07:32:14.212Z,18.70
2023-05-03T07:34:44.527Z,18.80
2023-05-03T07:37:16.916Z,18.80
2023-05-03T07:39:50.208Z,18.70
2023-05-03T07:42:19.234Z,18.80
2023-05-03T07:44:48.511Z,18.80
2023-05-03T07:47:19.423Z,18.80
2023-05-03T07:49:53.764Z,18.80
2023-05-03T07:52:30.639Z,18.80
2023-05-03T07:55:03.246Z,18.80
2023-05-03T07:57:34.020Z,18.80
2023-05-03T08:00:10.049Z,18.80
2023-05-03T08:02:41.173Z,18.80
2023-05-03T08:05:18.773Z,18.80
2023-05-03T08:07:47.838Z,18.80
2023-05-03T08:10:17.701Z,18.80
2023-05-03T08:12:50.586Z,18.80
2023-05-03T08:15:17.459Z,18.70
2023-05-03T08:17:53.349Z,18.80
2023-05-03T08:20:24.367Z,18.80
2023-05-03T08:23:04.024Z,18.80
2023-05-03T08:25:33.042Z,18.80
2023-05-03T08:28:07.830Z,18.80
2023-05-03T08:30:41.724Z,18.80
2023-05-03T08:33:14.993Z,18.80
2023-05-03T08:35:48.081Z,18.80
2023-05-03T08:38:18.633Z,18.80
2023-05-03T08:40:52.137Z,18.80
2023-05-03T08:43:25.367Z,18.80
2023-05-03T08:45:53.554Z,18.80
2023-05-03T08:48:21.667Z,18.80
2023-05-03T08:50:55.821Z,18.80
2023-05-03T08:56:09.577Z,18.90
2023-05-03T08:58:38.353Z,18.80
2023-05-03T09:01:33.628Z,18.80
2023-05-03T09:04:02.107Z,18.90
2023-05-03T09:06:33.168Z,18.90
2023-05-03T09:09:34.308Z,18.90
2023-05-03T09:12:06.408Z,18.90
2023-05-03T09:14:47.328Z,18.90
2023-05-03T09:17:19.922Z,18.80
2023-05-03T09:19:57.002Z,18.80
2023-05-03T09:22:31.105Z,18.90
2023-05-03T09:25:03.851Z,18.90
2023-05-03T09:27:34.229Z,18.90
2023-05-03T09:30:20.814Z,18.90
2023-05-03T09:32:51.119Z,18.90
2023-05-03T09:35:23.494Z,18.90
2023-05-03T09:37:55.887Z,18.90
2023-05-03T09:40:25.577Z,18.90
2023-05-03T09:43:11.012Z,18.90
2023-05-03T09:45:43.206Z,19.00
2023-05-03T09:48:15.533Z,18.90
2023-05-03T09:50:45.054Z,19.00
2023-05-03T09:53:25.877Z,19.00
2023-05-03T09:55:59.294Z,19.00
2023-05-03T09:58:33.127Z,19.00
2023-05-03T10:01:04.934Z,19.00
2023-05-03T10:03:55.732Z,19.00
2023-05-03T10:06:37.981Z,19.00
2023-05-03T10:09:43.159Z,19.00
2023-05-03T10:12:13.624Z,19.00
2023-05-03T10:14:55.694Z,19.00
2023-05-03T10:17:48.304Z,19.00
2023-05-03T10:20:29.638Z,19.00
2023-05-03T10:23:10.926Z,19.10
2023-05-03T10:26:15.553Z,19.00
2023-05-03T10:28:48.847Z,19.00
2023-05-03T10:34:43.820Z,19.10
2023-05-03T10:37:15.002Z,19.10
2023-05-03T10:39:45.707Z,19.10
2023-05-03T10:42:18.320Z,19.10
2023-05-03T10:44:57.046Z,19.10
2023-05-03T10:47:25.048Z,19.10
2023-05-03T10:50:19.824Z,19.10
2023-05-03T10:52:50.878Z,19.10
2023-05-03T10:55:27.056Z,19.10
2023-05-03T10:58:01.671Z,19.20
2023-05-03T11:00:46.835Z,19.20
2023-05-03T11:03:54.820Z,19.20
2023-05-03T11:06:52.243Z,19.30
2023-05-03T11:09:21.488Z,19.20
2023-05-03T11:14:36.077Z,19.20
2023-05-03T11:17:07.706Z,19.20
2023-05-03T11:19:38.136Z,19.30
2023-05-03T11:22:05.293Z,19.20
2023-05-03T11:24:35.774Z,19.30
2023-05-03T11:27:07.811Z,19.30
2023-05-03T11:29:38.836Z,19.30
2023-05-03T11:32:08.552Z,19.30
2023-05-03T11:34:50.241Z,19.30
2023-05-03T11:37:20.507Z,19.30
2023-05-03T11:39:47.804Z,19.30
2023-05-03T11:42:19.135Z,19.40
2023-05-03T11:44:49.755Z,19.40
2023-05-03T11:47:18.231Z,19.40
2023-05-03T11:49:59.190Z,19.40
2023-05-03T11:52:30.989Z,19.40
2023-05-03T11:55:03.772Z,19.40
2023-05-03T11:57:35.806Z,19.40
2023-05-03T12:00:29.891Z,19.50
2023-05-03T12:02:59.795Z,19.50
2023-05-03T12:08:13.418Z,19.50
2023-05-03T12:10:50.027Z,19.50
2023-05-03T12:13:29.865Z,19.50
2023-05-03T12:19:05.057Z,19.50
2023-05-03T12:22:18.079Z,19.60
2023-05-03T12:24:45.645Z,19.60
2023-05-03T12:27:19.287Z,19.50
2023-05-03T12:30:02.034Z,19.60
2023-05-03T12:32:33.590Z,19.60
2023-05-03T12:35:03.283Z,19.60
2023-05-03T12:37:38.126Z,19.60
2023-05-03T12:42:49.095Z,19.60
2023-05-03T12:45:21.369Z,19.60
2023-05-03T12:47:54.084Z,19.60
2023-05-03T12:50:24.933Z,19.70
2023-05-03T12:52:56.530Z,19.60
2023-05-03T12:55:25.626Z,19.70
2023-05-03T12:58:18.129Z,19.70
2023-05-03T13:01:26.279Z,19.70
2023-05-03T13:03:44.469Z,19.70
2023-05-03T13:06:23.127Z,19.70
2023-05-03T13:09:02.779Z,19.70
2023-05-03T13:11:37.434Z,19.70
2023-05-03T13:14:04.487Z,19.70
2023-05-03T13:16:37.785Z,19.80
2023-05-03T13:19:08.020Z,19.80
2023-05-03T13:21:39.740Z,19.80
2023-05-03T13:24:10.096Z,19.80
2023-05-03T13:26:39.108Z,19.80
2023-05-03T13:29:10.130Z,19.80
2023-05-03T13:31:43.563Z,19.80
2023-05-03T13:34:12.184Z,19.90
2023-05-03T13:36:46.538Z,19.90
2023-05-03T13:42:00.074Z,19.90
2023-05-03T13:44:39.558Z,19.90
2023-05-03T13:47:11.059Z,19.90
2023-05-03T13:49:42.945Z,19.90
2023-05-03T13:52:13.071Z,19.90
2023-05-03T13:54:45.648Z,20.00
2023-05-03T13:57:41.093Z,19.90
2023-05-03T14:00:13.520Z,19.90
2023-05-03T14:02:45.778Z,20.00
2023-05-03T14:05:14.658Z,20.00
2023-05-03T14:07:42.150Z,20.00
2023-05-03T14:10:12.894Z,20.00
2023-05-03T14:12:44.571Z,20.00
2023-05-03T14:15:17.771Z,20.00
2023-05-03T14:17:54.136Z,20.10
2023-05-03T14:20:26.271Z,20.10
2023-05-03T14:22:57.785Z,20.10
2023-05-03T14:25:29.676Z,20.10
2023-05-03T14:28:01.753Z,20.10
2023-05-03T14:30:32.771Z,20.10
2023-05-03T14:33:00.842Z,20.10
2023-05-03T14:35:31.421Z,20.10
2023-05-03T14:38:00.908Z,20.10
2023-05-03T14:40:30.682Z,20.10
2023-05-03T14:43:01.946Z,20.10
2023-05-03T14:45:33.515Z,20.10
2023-05-03T14:48:03.576Z,20.20
2023-05-03T14:50:39.420Z,20.20
2023-05-03T14:53:10.616Z,20.20
2023-05-03T14:55:40.119Z,20.20
2023-05-03T14:58:12.342Z,20.20
2023-05-03T15:00:49.697Z,20.20
2023-05-03T15:03:21.204Z,20.30
2023-05-03T15:05:52.222Z,20.30
2023-05-03T15:08:29.368Z,20.30
2023-05-03T15:11:01.435Z,20.30
2023-05-03T15:16:13.705Z,20.30
2023-05-03T15:18:48.071Z,20.30
2023-05-03T15:21:24.570Z,20.30
2023-05-03T15:23:56.717Z,20.30
2023-05-03T15:26:29.514Z,20.30
2023-05-03T15:28:59.552Z,20.30
2023-05-03T15:31:30.903Z,20.30
2023-05-03T15:34:00.604Z,20.40
2023-05-03T15:36:32.312Z,20.30
2023-05-03T15:39:01.364Z,20.40
2023-05-03T15:41:31.832Z,20.40
2023-05-03T15:44:07.486Z,20.40
2023-05-03T15:46:40.814Z,20.40
2023-05-03T15:49:13.504Z,20.40
2023-05-03T15:51:41.511Z,20.40
2023-05-03T15:54:11.604Z,20.40
2023-05-03T15:56:42.693Z,20.50
2023-05-03T15:59:17.092Z,20.40
2023-05-03T16:01:45.288Z,20.50
2023-05-03T16:04:16.549Z,20.50
2023-05-03T16:06:46.193Z,20.50
2023-05-03T16:09:19.470Z,20.50
2023-05-03T16:11:53.158Z,20.50
2023-05-03T16:14:24.816Z,20.50
2023-05-03T16:16:56.636Z,20.50
2023-05-03T16:19:26.825Z,20.50
2023-05-03T16:21:54.967Z,20.50
2023-05-03T16:24:23.408Z,20.60
2023-05-03T16:26:54.915Z,20.50
2023-05-03T16:29:26.326Z,20.60
2023-05-03T16:32:04.339Z,20.60
2023-05-03T16:34:37.432Z,20.60
2023-05-03T16:37:09.153Z,20.60
2023-05-03T16:39:42.049Z,20.60
2023-05-03T16:42:12.245Z,20.60
2023-05-03T16:44:44.050Z,20.60
2023-05-03T16:47:12.597Z,20.60
2023-05-03T16:52:26.423Z,20.60
2023-05-03T16:55:00.998Z,20.60
2023-05-03T16:57:32.461Z,20.60
2023-05-03T17:00:12.199Z,20.70
2023-05-03T17:02:43.517Z,20.70
2023-05-03T17:05:13.891Z,20.70
2023-05-03T17:07:43.911Z,20.70
2023-05-03T17:10:15.420Z,20.70
2023-05-03T17:12:47.263Z,20.70
2023-05-03T17:15:16.579Z,20.70
2023-05-03T17:17:48.413Z,20.70
2023-05-03T17:20:23.275Z,20.70
2023-05-03T17:22:51.784Z,20.70
2023-05-03T17:25:23.943Z,20.80
2023-05-03T17:27:55.121Z,20.70
2023-05-03T17:30:23.549Z,20.70
2023-05-03T17:32:55.410Z,20.80
2023-05-03T17:35:26.948Z,20.80
2023-05-03T17:38:02.076Z,20.70
2023-05-03T17:40:33.397Z,20.80
2023-05-03T17:43:05.134Z,20.80
2023-05-03T17:45:34.920Z,20.80
2023-05-03T17:48:06.002Z,20.80
2023-05-03T17:50:37.362Z,20.80
2023-05-03T17:53:09.099Z,20.80
2023-05-03T17:55:40.988Z,20.80
2023-05-03T17:58:11.126Z,20.80
2023-05-03T18:00:41.361Z,20.80
2023-05-03T18:03:15.474Z,20.80
2023-05-03T18:05:49.058Z,20.80
2023-05-03T18:08:19.435Z,20.80
2023-05-03T18:10:50.329Z,20.80
2023-05-03T18:13:19.401Z,20.80
2023-05-03T18:15:50.830Z,20.80
2023-05-03T18:18:20.343Z,20.80
2023-05-03T18:21:01.796Z,20.70
2023-05-03T18:23:32.983Z,20.80
2023-05-03T18:26:05.702Z,20.70
2023-05-03T18:28:38.144Z,20.70
2023-05-03T18:31:07.834Z,20.80
2023-05-03T18:33:36.716Z,20.70
2023-05-03T18:36:21.720Z,20.70
2023-05-03T18:38:56.021Z,20.70
2023-05-03T18:41:26.839Z,20.70
2023-05-03T18:43:56.969Z,20.70
2023-05-03T18:46:28.948Z,20.70
2023-05-03T18:48:58.334Z,20.70
2023-05-03T18:51:32.168Z,20.70
2023-05-03T18:54:02.928Z,20.70
2023-05-03T18:56:34.292Z,20.70
2023-05-03T18:59:02.509Z,20.70
2023-05-03T19:07:20.330Z,20.70
2023-05-03T19:10:02.948Z,20.60
2023-05-03T19:12:54.089Z,20.60
2023-05-03T19:18:42.208Z,20.60
2023-05-03T19:21:11.476Z,20.60
2023-05-03T19:23:43.423Z,20.50
2023-05-03T19:26:11.971Z,20.50
2023-05-03T19:28:45.600Z,20.60
2023-05-03T19:31:15.574Z,20.60
2023-05-03T19:33:48.220Z,20.50
2023-05-03T19:36:20.266Z,20.50
2023-05-03T19:38:53.916Z,20.50
2023-05-03T19:41:22.853Z,20.50
2023-05-03T19:43:55.979Z,20.50
2023-05-03T19:46:25.344Z,20.40
2023-05-03T19:48:58.814Z,20.50
2023-05-03T19:51:27.870Z,20.50
2023-05-03T19:54:02.789Z,20.40
2023-05-03T19:56:32.308Z,20.40
2023-05-03T19:59:00.393Z,20.40
2023-05-03T20:01:31.886Z,20.40
2023-05-03T20:04:02.054Z,20.40
2023-05-03T20:06:32.207Z,20.40
2023-05-03T20:09:02.205Z,20.40
2023-05-03T20:11:32.168Z,20.40
2023-05-03T20:13:59.887Z,20.40
2023-05-03T20:16:44.611Z,20.40
2023-05-03T20:19:17.740Z,20.40
2023-05-03T20:21:44.979Z,20.30
2023-05-03T20:24:17.600Z,20.40
2023-05-03T20:26:48.184Z,20.30
2023-05-03T20:29:17.004Z,20.40
2023-05-03T20:31:48.518Z,20.30
2023-05-03T20:34:20.107Z,20.30
2023-05-03T20:36:53.324Z,20.30
2023-05-03T20:39:23.868Z,20.30
2023-05-03T20:41:55.239Z,20.30
2023-05-03T20:44:27.218Z,20.30
2023-05-03T20:47:01.806Z,20.20
2023-05-03T20:49:38.568Z,20.20
2023-05-03T20:52:11.986Z,20.20
2023-05-03T20:54:43.739Z,20.20
2023-05-03T20:57:21.306Z,20.30
2023-05-03T20:59:53.273Z,20.20
2023-05-03T21:02:24.653Z,20.20
2023-05-03T21:04:55.093Z,20.20
2023-05-03T21:07:25.347Z,20.20
2023-05-03T21:09:54.628Z,20.20
2023-05-03T21:12:25.735Z,20.20
2023-05-03T21:14:53.990Z,20.20
2023-05-03T21:17:23.806Z,20.20
2023-05-03T21:19:54.956Z,20.10
2023-05-03T21:22:25.376Z,20.10
2023-05-03T21:24:56.833Z,20.10
2023-05-03T21:27:27.343Z,20.10
2023-05-03T21:29:57.207Z,20.10
2023-05-03T21:32:27.751Z,20.10
2023-05-03T21:37:39.784Z,20.10
2023-05-03T21:40:11.304Z,20.10
2023-05-03T21:42:44.459Z,20.00
2023-05-03T21:45:13.884Z,20.00
2023-05-03T21:47:54.455Z,20.00
2023-05-03T21:50:26.285Z,20.00
2023-05-03T21:52:55.501Z,20.00
2023-05-03T21:55:26.308Z,20.00
2023-05-03T21:57:59.846Z,20.00
2023-05-03T22:00:31.563Z,20.00
2023-05-03T22:03:01.003Z,20.00
2023-05-03T22:05:33.199Z,19.90
2023-05-03T22:08:03.389Z,19.90
2023-05-03T22:10:35.135Z,19.90
2023-05-03T22:13:06.446Z,19.90
2023-05-03T22:15:35.421Z,19.90
2023-05-03T22:18:05.994Z,19.90
2023-05-03T22:20:39.029Z,19.90
2023-05-03T22:23:11.093Z,19.90
2023-05-03T22:25:42.509Z,19.90
2023-05-03T22:28:13.815Z,19.90
2023-05-03T22:30:44.341Z,19.80
2023-05-03T22:33:17.474Z,19.90
2023-05-03T22:35:47.868Z,19.80
2023-05-03T22:38:19.686Z,19.80
2023-05-03T22:40:47.485Z,19.80
2023-05-03T22:43:19.671Z,19.80
2023-05-03T22:45:47.055Z,19.80
2023-05-03T22:48:18.593Z,19.80
2023-05-03T22:50:49.265Z,19.80
2023-05-03T22:53:19.261Z,19.80
2023-05-03T22:56:20.043Z,19.70
2023-05-03T22:58:48.675Z,19.70
2023-05-03T23:01:19.312Z,19.70
2023-05-03T23:03:50.606Z,19.70
2023-05-03T23:06:20.982Z,19.70
2023-05-03T23:08:54.605Z,19.70
2023-05-03T23:11:25.923Z,19.70
2023-05-03T23:13:54.709Z,19.70
2023-05-03T23:16:29.844Z,19.70
2023-05-03T23:19:01.100Z,19.70
2023-05-03T23:21:36.219Z,19.70
2023-05-03T23:24:08.805Z,19.60
2023-05-03T23:26:39.346Z,19.60
2023-05-03T23:29:09.530Z,19.60
2023-05-03T23:31:41.679Z,19.60
2023-05-03T23:34:12.470Z,19.60
2023-05-03T23:36:43.082Z,19.60
2023-05-03T23:39:14.319Z,19.60
2023-05-03T23:41:45.987Z,19.50
2023-05-03T23:44:18.710Z,19.50
2023-05-03T23:46:51.994Z,19.50
2023-05-03T23:49:27.566Z,19.50
2023-05-03T23:51:59.290Z,19.50
2023-05-03T23:54:30.580Z,19.50
2023-05-03T23:57:00.178Z,19.50
2023-05-03T23:59:29.260Z,19.50
